createdAt,value
2022-09-01T00:06:22.719Z,57.23
2022-09-01T00:13:24.323Z,56.70
2022-09-01T00:20:26.044Z,56.65
2022-09-01T00:27:30.535Z,56.52
2022-09-01T00:34:32.387Z,56.59
2022-09-01T00:41:35.571Z,56.10
2022-09-01T00:48:37.673Z,55.95
2022-09-01T00:55:39.819Z,56.30
2022-09-01T01:02:41.588Z,56.64
2022-09-01T01:09:44.791Z,56.50
2022-09-01T01:16:47.915Z,57.02
2022-09-01T01:24:22.330Z,57.40
2022-09-01T01:31:25.565Z,57.96
2022-09-01T01:38:27.955Z,58.98
2022-09-01T01:45:30.760Z,59.68
2022-09-01T01:52:34.810Z,60.13
2022-09-01T01:59:40.912Z,60.22
2022-09-01T02:06:45.860Z,60.73
2022-09-01T02:13:49.654Z,61.53
2022-09-01T02:20:51.892Z,62.29
2022-09-01T02:27:55.527Z,62.16
2022-09-01T02:35:01.392Z,62.46
2022-09-01T02:42:03.532Z,62.56
2022-09-01T02:49:05.401Z,62.95
2022-09-01T02:56:11.976Z,63.47
2022-09-01T03:03:13.651Z,64.07
2022-09-01T03:10:16.389Z,64.56
2022-09-01T03:17:18.277Z,65.01
2022-09-01T03:24:22.301Z,65.84
2022-09-01T03:31:27.602Z,66.49
2022-09-01T03:38:34.818Z,67.20
2022-09-01T03:45:38.930Z,67.64
2022-09-01T03:52:43.030Z,68.01
2022-09-01T03:59:45.152Z,68.65
2022-09-01T04:06:47.242Z,69.12
2022-09-01T04:13:50.561Z,69.41
2022-09-01T04:20:56.857Z,69.33
2022-09-01T04:27:59.057Z,70.04
2022-09-01T04:35:01.569Z,70.44
2022-09-01T04:42:06.248Z,70.98
2022-09-01T04:49:13.158Z,70.92
2022-09-01T04:56:19.645Z,71.17
2022-09-01T05:03:32.113Z,71.61
2022-09-01T05:10:55.629Z,71.38
2022-09-01T05:18:23.925Z,71.61
2022-09-01T05:25:26.014Z,72.10
2022-09-01T05:32:28.650Z,71.59
2022-09-01T05:39:30.330Z,71.54
2022-09-01T05:46:32.526Z,71.37
2022-09-01T05:53:34.294Z,70.62
2022-09-01T06:00:38.470Z,70.76
2022-09-01T06:07:42.794Z,70.70
2022-09-01T06:14:47.117Z,70.15
2022-09-01T06:21:50.126Z,69.84
2022-09-01T06:28:54.748Z,69.55
2022-09-01T06:35:56.972Z,68.67
2022-09-01T06:43:02.275Z,68.93
2022-09-01T06:50:04.327Z,68.68
2022-09-01T07:04:30.265Z,67.74
2022-09-01T07:19:01.276Z,61.38
2022-09-01T07:26:08.006Z,59.27
2022-09-01T07:49:01.794Z,52.86
2022-09-01T07:55:53.913Z,52.54
2022-09-01T08:02:57.321Z,52.12
2022-09-01T08:10:01.309Z,49.41
2022-09-01T08:24:28.055Z,46.70
2022-09-01T08:31:31.255Z,43.88
2022-09-01T08:38:35.241Z,41.17
2022-09-01T08:45:49.408Z,40.19
2022-09-01T08:53:09.042Z,40.44
2022-09-01T09:00:14.791Z,39.59
2022-09-01T09:07:26.951Z,37.76
2022-09-01T09:14:54.564Z,36.58
2022-09-01T09:21:58.611Z,36.02
2022-09-01T09:29:01.804Z,35.54
2022-09-01T09:36:22.071Z,35.42
2022-09-01T09:43:28.167Z,33.99
2022-09-01T09:50:32.105Z,33.48
2022-09-01T09:57:38.086Z,32.00
2022-09-01T10:04:39.729Z,32.80
2022-09-01T10:11:43.177Z,31.66
2022-09-01T10:18:45.954Z,32.31
2022-09-01T10:25:50.199Z,33.38
2022-09-01T10:32:58.885Z,33.37
2022-09-01T10:40:14.873Z,32.28
2022-09-01T10:47:33.732Z,29.98
2022-09-01T10:54:40.321Z,28.73
2022-09-01T11:01:52.931Z,29.67
2022-09-01T11:09:00.974Z,28.16
2022-09-01T11:23:52.729Z,31.46
2022-09-01T11:30:58.244Z,29.76
2022-09-01T11:38:02.895Z,26.91
2022-09-01T11:45:22.152Z,27.68
2022-09-01T11:52:26.325Z,29.31
2022-09-01T11:59:35.488Z,30.25
2022-09-01T12:06:37.185Z,31.74
2022-09-01T12:13:39.887Z,30.03
2022-09-01T12:20:41.570Z,32.27
2022-09-01T12:27:43.222Z,33.41
2022-09-01T12:35:05.607Z,34.50
2022-09-01T12:42:20.158Z,35.73
2022-09-01T12:49:50.304Z,35.97
2022-09-01T12:56:52.781Z,35.49
2022-09-01T13:04:30.939Z,35.48
2022-09-01T13:19:11.077Z,31.43
2022-09-01T13:26:13.076Z,31.71
2022-09-01T13:33:23.358Z,33.24
2022-09-01T13:40:25.355Z,34.05
2022-09-01T13:47:29.496Z,33.83
2022-09-01T13:54:31.612Z,33.56
2022-09-01T14:01:33.372Z,34.29
2022-09-01T14:08:35.017Z,35.10
2022-09-01T14:15:36.694Z,35.02
2022-09-01T14:22:40.215Z,34.59
2022-09-01T14:36:43.977Z,32.43
2022-09-01T14:43:48.130Z,32.39
2022-09-01T14:50:50.744Z,30.35
2022-09-01T14:57:52.814Z,28.34
2022-09-01T15:04:54.826Z,29.36
2022-09-01T15:11:56.479Z,27.61
2022-09-01T15:18:58.107Z,27.23
2022-09-01T15:25:59.919Z,28.31
2022-09-01T15:33:01.756Z,28.22
2022-09-01T15:40:05.679Z,30.82
2022-09-01T15:47:07.332Z,31.64
2022-09-01T15:54:16.759Z,30.63
2022-09-01T16:01:18.649Z,30.31
2022-09-01T16:08:20.581Z,30.61
2022-09-01T16:15:23.670Z,30.32
2022-09-01T16:22:35.835Z,29.64
2022-09-01T16:29:45.398Z,31.22
2022-09-01T16:37:06.321Z,32.29
2022-09-01T16:44:31.109Z,33.48
2022-09-01T16:51:38.595Z,33.36
2022-09-01T16:58:51.938Z,33.13
2022-09-01T17:06:02.259Z,33.57
2022-09-01T17:13:20.860Z,33.94
2022-09-01T17:20:23.714Z,35.00
2022-09-01T17:27:25.257Z,35.97
2022-09-01T17:35:04.470Z,37.28
2022-09-01T17:42:21.633Z,39.10
2022-09-01T17:49:28.649Z,40.21
2022-09-01T17:56:42.523Z,40.46
2022-09-01T18:04:11.696Z,41.08
2022-09-01T18:11:23.012Z,40.48
2022-09-01T18:18:37.807Z,40.68
2022-09-01T18:25:41.658Z,40.96
2022-09-01T18:33:08.136Z,41.22
2022-09-01T18:40:33.782Z,41.42
2022-09-01T18:48:05.822Z,41.93
2022-09-01T18:55:15.407Z,42.18
2022-09-01T19:02:52.516Z,42.97
2022-09-01T19:10:37.888Z,43.59
2022-09-01T19:17:52.414Z,43.97
2022-09-01T19:25:16.700Z,44.76
2022-09-01T19:32:19.722Z,45.13
2022-09-01T19:39:29.924Z,45.30
2022-09-01T19:46:52.311Z,46.14
2022-09-01T19:54:21.970Z,46.46
2022-09-01T20:01:55.488Z,46.62
2022-09-01T20:09:31.775Z,47.11
2022-09-01T20:17:06.682Z,47.67
2022-09-01T20:24:38.450Z,47.65
2022-09-01T20:31:45.485Z,47.94
2022-09-01T20:39:15.661Z,47.71
2022-09-01T20:46:19.339Z,48.06
2022-09-01T20:53:39.102Z,48.72
2022-09-01T21:00:50.871Z,49.15
2022-09-01T21:08:14.659Z,49.31
2022-09-01T21:15:31.835Z,49.60
2022-09-01T21:22:34.936Z,49.80
2022-09-01T21:30:05.084Z,50.39
2022-09-01T21:37:06.978Z,50.58
2022-09-01T21:44:09.657Z,51.03
2022-09-01T21:51:11.353Z,51.40
2022-09-01T21:58:12.985Z,52.01
2022-09-01T22:05:14.873Z,51.97
2022-09-01T22:12:16.467Z,52.42
2022-09-01T22:19:18.093Z,52.86
2022-09-01T22:26:25.018Z,52.98
2022-09-01T22:33:27.171Z,53.27
2022-09-01T22:40:30.241Z,53.87
2022-09-01T22:47:31.966Z,53.63
2022-09-01T22:54:39.880Z,54.23
2022-09-01T23:01:43.258Z,54.26
2022-09-01T23:08:45.035Z,54.65
2022-09-01T23:15:46.648Z,54.59
2022-09-01T23:22:48.274Z,54.77
2022-09-01T23:29:50.282Z,55.22
2022-09-01T23:36:51.919Z,55.03
2022-09-01T23:43:53.530Z,55.48
2022-09-01T23:50:57.275Z,55.77
2022-09-01T23:57:58.888Z,55.74
